Estación Meteorológica Peña el Pijo (Robertgarden) [ 11/20/18 00:31:37 CET ]

Fecha Hora Presion(HPa) Temp (°C) Humedad % Rocio (°C) Viento ( m/s) Direccion Lluvia 1Hora(mm) Lluvia 24H(mm) LLuvia Total(mm)
2018-Jan-15 01:01:47 1008.100 0.5 85 -1.8       2.07 38.33
2018-Jan-15 02:05:14 1008.100 0.5 86 -1.6       2.07 38.33
2018-Jan-15 03:01:57 1007.900 0.6 86 -1.5     0.51 2.59 38.85
2018-Jan-15 04:01:48 1008.200 0.4 87 -1.5       2.59 38.85
2018-Jan-15 05:01:37 1008.400 0.3 87 -1.6       2.59 38.85
2018-Jan-15 06:01:44 1008.800 0.3 87 -1.6       2.59 38.85
2018-Jan-15 07:01:49 1009.700 0.3 87 -1.6       2.59 38.85
2018-Jan-15 08:01:53 1010.100 0.3 88 -1.4       2.59 38.85
2018-Jan-15 09:01:56 1011.000 0.4 88 -1.4       2.59 38.85
2018-Jan-15 10:01:53 1011.700 1.2 88 -0.6       2.59 38.85
2018-Jan-15 11:01:49 1012.800 2.2 89 0.5       2.59 38.85
2018-Jan-15 12:01:49 1012.900 4.3 88 2.5     1.55 4.14 40.40
2018-Jan-15 13:01:45 1012.800 4.8 86 2.6     5.18 9.32 45.58
2018-Jan-15 14:02:03 1012.800 5.9 82 3.0     5.18 14.50 50.76
2018-Jan-15 15:01:50 1012.400 5.2 80 2.0     3.10 17.61 53.87
2018-Jan-15 16:01:45 1013.100 5.3 78 1.7     2.59 19.16 56.46
2018-Jan-15 17:01:47 1013.500 4.2 75 0.1     2.59 20.72 59.05
2018-Jan-15 18:01:53 1013.600 2.4 77 -1.2       20.72 59.05
2018-Jan-15 19:01:44 1014.200 0.6 80 -2.5       20.72 59.05
2018-Jan-15 20:01:54 1015.400 -0.1 82 -2.8       20.72 59.05
2018-Jan-15 21:01:49 1015.700 -0.2 84 -2.6       20.72 59.05
2018-Jan-15 22:01:55 1016.300 -0.4 85 -2.6       20.72 59.05
2018-Jan-15 23:01:55 1016.800 -0.4 85 -2.6       20.72 59.05

Temperatura Máxima:    Temperatura Mínima:
Presión Máxima:1016.800 Hpa    Presión Mínima:1007.900 Hpa


Volver